sensor_id;sensor_type;location;lat;lon;timestamp;P1;durP1;ratioP1;P2;durP2;ratioP2
74152;SDS011;62505;46.070;14.492;2024-03-17T00:01:51;5.45;;;3.63;;
74152;SDS011;62505;46.070;14.492;2024-03-17T00:04:17;6.15;;;3.90;;
74152;SDS011;62505;46.070;14.492;2024-03-17T00:06:46;6.00;;;4.10;;
74152;SDS011;62505;46.070;14.492;2024-03-17T00:09:12;7.75;;;4.03;;
74152;SDS011;62505;46.070;14.492;2024-03-17T00:11:41;4.38;;;3.60;;
74152;SDS011;62505;46.070;14.492;2024-03-17T00:14:07;5.22;;;3.88;;
74152;SDS011;62505;46.070;14.492;2024-03-17T00:16:34;5.43;;;3.80;;
74152;SDS011;62505;46.070;14.492;2024-03-17T00:19:00;6.55;;;3.67;;
74152;SDS011;62505;46.070;14.492;2024-03-17T00:21:27;5.57;;;3.88;;
74152;SDS011;62505;46.070;14.492;2024-03-17T00:23:54;4.70;;;3.40;;
74152;SDS011;62505;46.070;14.492;2024-03-17T00:26:22;6.10;;;4.47;;
74152;SDS011;62505;46.070;14.492;2024-03-17T00:28:48;6.05;;;3.90;;
74152;SDS011;62505;46.070;14.492;2024-03-17T00:31:16;5.63;;;3.83;;
74152;SDS011;62505;46.070;14.492;2024-03-17T00:33:42;7.57;;;3.92;;
74152;SDS011;62505;46.070;14.492;2024-03-17T00:36:10;8.70;;;4.10;;
74152;SDS011;62505;46.070;14.492;2024-03-17T00:38:36;6.32;;;4.03;;
74152;SDS011;62505;46.070;14.492;2024-03-17T00:41:04;6.30;;;3.90;;
74152;SDS011;62505;46.070;14.492;2024-03-17T00:43:31;6.15;;;3.80;;
74152;SDS011;62505;46.070;14.492;2024-03-17T00:45:58;5.72;;;3.70;;
74152;SDS011;62505;46.070;14.492;2024-03-17T00:48:24;6.05;;;3.83;;
74152;SDS011;62505;46.070;14.492;2024-03-17T00:50:54;4.80;;;3.30;;
74152;SDS011;62505;46.070;14.492;2024-03-17T00:53:20;7.03;;;3.70;;
74152;SDS011;62505;46.070;14.492;2024-03-17T00:55:50;6.35;;;3.60;;
74152;SDS011;62505;46.070;14.492;2024-03-17T00:58:18;6.05;;;3.78;;
74152;SDS011;62505;46.070;14.492;2024-03-17T01:00:46;4.53;;;3.22;;
74152;SDS011;62505;46.070;14.492;2024-03-17T01:03:13;5.70;;;4.15;;
74152;SDS011;62505;46.070;14.492;2024-03-17T01:05:40;4.88;;;3.70;;
74152;SDS011;62505;46.070;14.492;2024-03-17T01:08:07;5.82;;;3.92;;
74152;SDS011;62505;46.070;14.492;2024-03-17T01:10:37;5.60;;;3.70;;
74152;SDS011;62505;46.070;14.492;2024-03-17T01:13:03;6.78;;;4.40;;
74152;SDS011;62505;46.070;14.492;2024-03-17T01:15:34;5.18;;;3.75;;
74152;SDS011;62505;46.070;14.492;2024-03-17T01:18:00;6.10;;;3.95;;
74152;SDS011;62505;46.070;14.492;2024-03-17T01:20:27;7.00;;;4.22;;
74152;SDS011;62505;46.070;14.492;2024-03-17T01:22:53;5.65;;;3.90;;
74152;SDS011;62505;46.070;14.492;2024-03-17T01:25:20;6.43;;;3.72;;
74152;SDS011;62505;46.070;14.492;2024-03-17T01:27:46;3.83;;;3.35;;
74152;SDS011;62505;46.070;14.492;2024-03-17T01:30:13;6.03;;;3.90;;
74152;SDS011;62505;46.070;14.492;2024-03-17T01:32:40;5.80;;;4.13;;
74152;SDS011;62505;46.070;14.492;2024-03-17T01:35:08;7.47;;;4.15;;
74152;SDS011;62505;46.070;14.492;2024-03-17T01:37:34;6.10;;;3.70;;
74152;SDS011;62505;46.070;14.492;2024-03-17T01:40:01;8.23;;;4.25;;
74152;SDS011;62505;46.070;14.492;2024-03-17T01:42:28;5.97;;;3.80;;
74152;SDS011;62505;46.070;14.492;2024-03-17T01:44:54;4.68;;;3.63;;
74152;SDS011;62505;46.070;14.492;2024-03-17T01:47:21;6.65;;;4.28;;
74152;SDS011;62505;46.070;14.492;2024-03-17T01:49:49;4.45;;;3.50;;
74152;SDS011;62505;46.070;14.492;2024-03-17T01:52:17;5.93;;;4.18;;
74152;SDS011;62505;46.070;14.492;2024-03-17T01:54:45;7.68;;;3.78;;
74152;SDS011;62505;46.070;14.492;2024-03-17T01:57:13;5.05;;;3.67;;
74152;SDS011;62505;46.070;14.492;2024-03-17T01:59:39;5.60;;;3.60;;
74152;SDS011;62505;46.070;14.492;2024-03-17T02:02:06;5.68;;;4.22;;
74152;SDS011;62505;46.070;14.492;2024-03-17T02:04:32;5.78;;;3.60;;
74152;SDS011;62505;46.070;14.492;2024-03-17T02:07:01;6.25;;;4.25;;
74152;SDS011;62505;46.070;14.492;2024-03-17T02:09:27;5.65;;;3.90;;
74152;SDS011;62505;46.070;14.492;2024-03-17T02:11:54;4.65;;;3.60;;
74152;SDS011;62505;46.070;14.492;2024-03-17T02:14:20;6.20;;;3.97;;
74152;SDS011;62505;46.070;14.492;2024-03-17T02:16:47;5.72;;;3.90;;
74152;SDS011;62505;46.070;14.492;2024-03-17T02:19:13;4.90;;;4.00;;
74152;SDS011;62505;46.070;14.492;2024-03-17T02:21:40;6.50;;;4.10;;
74152;SDS011;62505;46.070;14.492;2024-03-17T02:24:09;6.28;;;4.15;;
74152;SDS011;62505;46.070;14.492;2024-03-17T02:26:36;6.40;;;4.65;;
74152;SDS011;62505;46.070;14.492;2024-03-17T02:29:03;4.43;;;3.75;;
74152;SDS011;62505;46.070;14.492;2024-03-17T02:31:30;6.80;;;3.83;;
74152;SDS011;62505;46.070;14.492;2024-03-17T02:33:56;6.45;;;4.07;;
74152;SDS011;62505;46.070;14.492;2024-03-17T02:36:23;5.05;;;3.70;;
74152;SDS011;62505;46.070;14.492;2024-03-17T02:38:49;6.13;;;3.70;;
74152;SDS011;62505;46.070;14.492;2024-03-17T02:41:35;5.65;;;4.15;;
74152;SDS011;62505;46.070;14.492;2024-03-17T02:44:02;8.95;;;3.80;;
74152;SDS011;62505;46.070;14.492;2024-03-17T02:46:29;6.97;;;3.50;;
74152;SDS011;62505;46.070;14.492;2024-03-17T02:48:55;4.22;;;3.67;;
74152;SDS011;62505;46.070;14.492;2024-03-17T02:51:22;6.93;;;4.00;;
74152;SDS011;62505;46.070;14.492;2024-03-17T02:53:50;5.22;;;3.85;;
74152;SDS011;62505;46.070;14.492;2024-03-17T02:56:17;7.07;;;3.90;;
74152;SDS011;62505;46.070;14.492;2024-03-17T02:58:46;5.78;;;3.95;;
74152;SDS011;62505;46.070;14.492;2024-03-17T03:01:14;4.55;;;3.45;;
74152;SDS011;62505;46.070;14.492;2024-03-17T03:03:41;5.57;;;3.80;;
74152;SDS011;62505;46.070;14.492;2024-03-17T03:06:08;5.68;;;3.67;;
74152;SDS011;62505;46.070;14.492;2024-03-17T03:08:37;5.97;;;3.70;;
74152;SDS011;62505;46.070;14.492;2024-03-17T03:11:05;5.47;;;3.60;;
74152;SDS011;62505;46.070;14.492;2024-03-17T03:13:35;5.45;;;3.75;;
74152;SDS011;62505;46.070;14.492;2024-03-17T03:16:05;5.68;;;4.13;;
74152;SDS011;62505;46.070;14.492;2024-03-17T03:18:33;7.43;;;4.13;;
74152;SDS011;62505;46.070;14.492;2024-03-17T03:21:00;6.38;;;3.63;;
74152;SDS011;62505;46.070;14.492;2024-03-17T03:23:27;4.63;;;3.92;;
74152;SDS011;62505;46.070;14.492;2024-03-17T03:25:57;5.85;;;3.85;;
74152;SDS011;62505;46.070;14.492;2024-03-17T03:28:25;4.55;;;3.70;;
74152;SDS011;62505;46.070;14.492;2024-03-17T03:30:53;5.70;;;4.30;;
74152;SDS011;62505;46.070;14.492;2024-03-17T03:33:21;4.50;;;4.00;;
74152;SDS011;62505;46.070;14.492;2024-03-17T03:35:48;4.20;;;3.58;;
74152;SDS011;62505;46.070;14.492;2024-03-17T03:38:16;5.20;;;3.90;;
74152;SDS011;62505;46.070;14.492;2024-03-17T03:40:43;5.40;;;4.00;;
74152;SDS011;62505;46.070;14.492;2024-03-17T03:43:13;5.13;;;3.53;;
74152;SDS011;62505;46.070;14.492;2024-03-17T03:45:40;6.65;;;3.83;;
74152;SDS011;62505;46.070;14.492;2024-03-17T03:48:08;5.45;;;3.83;;
74152;SDS011;62505;46.070;14.492;2024-03-17T03:50:36;5.70;;;3.83;;
74152;SDS011;62505;46.070;14.492;2024-03-17T03:53:04;4.72;;;3.72;;
74152;SDS011;62505;46.070;14.492;2024-03-17T03:55:31;4.95;;;3.70;;
74152;SDS011;62505;46.070;14.492;2024-03-17T03:57:58;4.38;;;3.42;;
74152;SDS011;62505;46.070;14.492;2024-03-17T04:00:25;4.40;;;3.72;;
74152;SDS011;62505;46.070;14.492;2024-03-17T04:02:56;6.55;;;4.78;;
74152;SDS011;62505;46.070;14.492;2024-03-17T04:05:24;4.40;;;3.38;;
74152;SDS011;62505;46.070;14.492;2024-03-17T04:07:53;5.45;;;3.97;;
74152;SDS011;62505;46.070;14.492;2024-03-17T04:10:19;3.75;;;3.35;;
74152;SDS011;62505;46.070;14.492;2024-03-17T04:12:47;5.22;;;3.80;;
74152;SDS011;62505;46.070;14.492;2024-03-17T04:15:14;4.82;;;3.92;;
74152;SDS011;62505;46.070;14.492;2024-03-17T04:17:41;5.13;;;3.65;;
74152;SDS011;62505;46.070;14.492;2024-03-17T04:20:09;5.20;;;3.88;;
74152;SDS011;62505;46.070;14.492;2024-03-17T04:22:38;5.57;;;3.78;;
74152;SDS011;62505;46.070;14.492;2024-03-17T04:25:07;5.32;;;4.25;;
74152;SDS011;62505;46.070;14.492;2024-03-17T04:27:34;5.90;;;4.03;;
74152;SDS011;62505;46.070;14.492;2024-03-17T04:30:01;5.63;;;3.90;;
74152;SDS011;62505;46.070;14.492;2024-03-17T04:32:32;6.35;;;3.60;;
74152;SDS011;62505;46.070;14.492;2024-03-17T04:35:00;4.53;;;3.40;;
74152;SDS011;62505;46.070;14.492;2024-03-17T04:37:27;5.47;;;4.00;;
74152;SDS011;62505;46.070;14.492;2024-03-17T04:39:54;5.15;;;4.13;;
74152;SDS011;62505;46.070;14.492;2024-03-17T04:42:24;7.05;;;3.78;;
74152;SDS011;62505;46.070;14.492;2024-03-17T04:44:51;4.78;;;3.45;;
74152;SDS011;62505;46.070;14.492;2024-03-17T04:47:18;5.45;;;3.92;;
74152;SDS011;62505;46.070;14.492;2024-03-17T04:49:45;5.63;;;3.80;;
74152;SDS011;62505;46.070;14.492;2024-03-17T04:52:12;5.15;;;3.83;;
74152;SDS011;62505;46.070;14.492;2024-03-17T04:54:41;6.20;;;4.15;;
74152;SDS011;62505;46.070;14.492;2024-03-17T04:57:08;7.78;;;3.63;;
74152;SDS011;62505;46.070;14.492;2024-03-17T04:59:37;5.63;;;4.13;;
74152;SDS011;62505;46.070;14.492;2024-03-17T05:02:04;4.90;;;3.95;;
74152;SDS011;62505;46.070;14.492;2024-03-17T05:04:31;7.57;;;4.47;;
74152;SDS011;62505;46.070;14.492;2024-03-17T05:06:58;5.35;;;3.60;;
74152;SDS011;62505;46.070;14.492;2024-03-17T05:09:25;7.35;;;3.95;;
74152;SDS011;62505;46.070;14.492;2024-03-17T05:11:52;6.18;;;3.70;;
74152;SDS011;62505;46.070;14.492;2024-03-17T05:14:19;4.20;;;3.63;;
74152;SDS011;62505;46.070;14.492;2024-03-17T05:16:49;4.80;;;3.90;;
74152;SDS011;62505;46.070;14.492;2024-03-17T05:19:17;5.38;;;3.60;;
74152;SDS011;62505;46.070;14.492;2024-03-17T05:21:44;5.90;;;4.10;;
74152;SDS011;62505;46.070;14.492;2024-03-17T05:24:11;6.72;;;4.22;;
74152;SDS011;62505;46.070;14.492;2024-03-17T05:26:38;4.97;;;3.63;;
74152;SDS011;62505;46.070;14.492;2024-03-17T05:29:05;4.88;;;3.92;;
74152;SDS011;62505;46.070;14.492;2024-03-17T05:31:32;4.85;;;3.63;;
74152;SDS011;62505;46.070;14.492;2024-03-17T05:34:01;5.45;;;4.00;;
74152;SDS011;62505;46.070;14.492;2024-03-17T05:36:28;6.63;;;4.13;;
74152;SDS011;62505;46.070;14.492;2024-03-17T05:38:57;7.45;;;3.97;;
74152;SDS011;62505;46.070;14.492;2024-03-17T05:41:25;5.32;;;3.90;;
74152;SDS011;62505;46.070;14.492;2024-03-17T05:43:53;9.27;;;4.50;;
74152;SDS011;62505;46.070;14.492;2024-03-17T05:46:23;5.68;;;4.10;;
74152;SDS011;62505;46.070;14.492;2024-03-17T05:48:50;10.07;;;3.88;;
74152;SDS011;62505;46.070;14.492;2024-03-17T05:51:19;5.22;;;3.83;;
74152;SDS011;62505;46.070;14.492;2024-03-17T05:53:46;5.20;;;3.92;;
74152;SDS011;62505;46.070;14.492;2024-03-17T05:56:13;4.93;;;3.80;;
74152;SDS011;62505;46.070;14.492;2024-03-17T05:58:41;6.80;;;3.92;;
74152;SDS011;62505;46.070;14.492;2024-03-17T06:01:08;4.70;;;3.35;;
74152;SDS011;62505;46.070;14.492;2024-03-17T06:03:36;6.53;;;3.92;;
74152;SDS011;62505;46.070;14.492;2024-03-17T06:06:04;5.45;;;3.92;;
74152;SDS011;62505;46.070;14.492;2024-03-17T06:08:34;4.85;;;3.63;;
74152;SDS011;62505;46.070;14.492;2024-03-17T06:11:01;6.85;;;4.22;;
74152;SDS011;62505;46.070;14.492;2024-03-17T06:13:29;6.78;;;4.20;;
74152;SDS011;62505;46.070;14.492;2024-03-17T06:15:56;7.15;;;3.88;;
74152;SDS011;62505;46.070;14.492;2024-03-17T06:18:26;7.63;;;3.80;;
74152;SDS011;62505;46.070;14.492;2024-03-17T06:20:53;6.18;;;4.15;;
74152;SDS011;62505;46.070;14.492;2024-03-17T06:23:23;5.63;;;3.83;;
74152;SDS011;62505;46.070;14.492;2024-03-17T06:25:53;6.18;;;3.72;;
74152;SDS011;62505;46.070;14.492;2024-03-17T06:28:21;8.80;;;4.18;;
74152;SDS011;62505;46.070;14.492;2024-03-17T06:30:54;5.07;;;4.03;;
74152;SDS011;62505;46.070;14.492;2024-03-17T06:33:24;4.57;;;3.45;;
74152;SDS011;62505;46.070;14.492;2024-03-17T06:35:51;6.63;;;3.90;;
74152;SDS011;62505;46.070;14.492;2024-03-17T06:38:18;8.88;;;4.20;;
74152;SDS011;62505;46.070;14.492;2024-03-17T06:40:47;7.22;;;4.07;;
74152;SDS011;62505;46.070;14.492;2024-03-17T06:43:16;11.32;;;4.00;;
74152;SDS011;62505;46.070;14.492;2024-03-17T06:45:53;12.73;;;5.32;;
74152;SDS011;62505;46.070;14.492;2024-03-17T06:48:21;12.50;;;4.53;;
74152;SDS011;62505;46.070;14.492;2024-03-17T06:50:48;11.95;;;4.80;;
74152;SDS011;62505;46.070;14.492;2024-03-17T06:53:16;12.77;;;4.35;;
74152;SDS011;62505;46.070;14.492;2024-03-17T06:55:44;6.90;;;4.03;;
74152;SDS011;62505;46.070;14.492;2024-03-17T06:58:13;10.32;;;4.15;;
74152;SDS011;62505;46.070;14.492;2024-03-17T07:00:41;7.28;;;4.53;;
74152;SDS011;62505;46.070;14.492;2024-03-17T07:03:09;12.98;;;4.32;;
74152;SDS011;62505;46.070;14.492;2024-03-17T07:05:36;10.98;;;4.25;;
74152;SDS011;62505;46.070;14.492;2024-03-17T07:08:03;9.90;;;4.50;;
74152;SDS011;62505;46.070;14.492;2024-03-17T07:10:31;11.52;;;4.60;;
74152;SDS011;62505;46.070;14.492;2024-03-17T07:12:57;11.10;;;4.75;;
74152;SDS011;62505;46.070;14.492;2024-03-17T07:15:24;16.23;;;4.50;;
74152;SDS011;62505;46.070;14.492;2024-03-17T07:17:53;12.07;;;5.15;;
74152;SDS011;62505;46.070;14.492;2024-03-17T07:20:20;16.02;;;5.20;;
74152;SDS011;62505;46.070;14.492;2024-03-17T07:22:48;15.07;;;5.05;;
74152;SDS011;62505;46.070;14.492;2024-03-17T07:25:15;18.85;;;5.47;;
74152;SDS011;62505;46.070;14.492;2024-03-17T07:27:42;15.23;;;5.50;;
74152;SDS011;62505;46.070;14.492;2024-03-17T07:30:09;23.85;;;6.05;;
74152;SDS011;62505;46.070;14.492;2024-03-17T07:32:37;16.27;;;5.65;;
74152;SDS011;62505;46.070;14.492;2024-03-17T07:35:05;19.38;;;6.07;;
74152;SDS011;62505;46.070;14.492;2024-03-17T07:37:32;17.60;;;5.68;;
74152;SDS011;62505;46.070;14.492;2024-03-17T07:39:59;16.33;;;5.85;;
74152;SDS011;62505;46.070;14.492;2024-03-17T07:42:26;11.52;;;5.45;;
74152;SDS011;62505;46.070;14.492;2024-03-17T07:44:52;14.68;;;5.82;;
74152;SDS011;62505;46.070;14.492;2024-03-17T07:47:19;21.73;;;6.22;;
74152;SDS011;62505;46.070;14.492;2024-03-17T07:49:46;22.95;;;5.57;;
74152;SDS011;62505;46.070;14.492;2024-03-17T07:52:15;18.40;;;5.45;;
74152;SDS011;62505;46.070;14.492;2024-03-17T07:54:41;20.40;;;5.35;;
74152;SDS011;62505;46.070;14.492;2024-03-17T07:57:11;13.80;;;5.10;;
74152;SDS011;62505;46.070;14.492;2024-03-17T07:59:39;20.52;;;5.22;;
74152;SDS011;62505;46.070;14.492;2024-03-17T08:02:07;22.15;;;6.60;;
74152;SDS011;62505;46.070;14.492;2024-03-17T08:04:34;21.70;;;6.13;;
74152;SDS011;62505;46.070;14.492;2024-03-17T08:07:04;19.23;;;5.22;;
74152;SDS011;62505;46.070;14.492;2024-03-17T08:09:32;18.15;;;5.82;;
74152;SDS011;62505;46.070;14.492;2024-03-17T08:11:59;18.33;;;5.63;;
74152;SDS011;62505;46.070;14.492;2024-03-17T08:14:27;13.75;;;5.20;;
74152;SDS011;62505;46.070;14.492;2024-03-17T08:16:54;18.65;;;5.45;;
74152;SDS011;62505;46.070;14.492;2024-03-17T08:19:21;21.42;;;5.40;;
74152;SDS011;62505;46.070;14.492;2024-03-17T08:21:48;17.60;;;5.80;;
74152;SDS011;62505;46.070;14.492;2024-03-17T08:24:15;19.90;;;5.95;;
74152;SDS011;62505;46.070;14.492;2024-03-17T08:26:43;16.08;;;5.25;;
74152;SDS011;62505;46.070;14.492;2024-03-17T08:29:11;18.45;;;5.85;;
74152;SDS011;62505;46.070;14.492;2024-03-17T08:31:37;15.15;;;6.15;;
74152;SDS011;62505;46.070;14.492;2024-03-17T08:34:04;21.27;;;6.22;;
74152;SDS011;62505;46.070;14.492;2024-03-17T08:36:31;18.38;;;5.65;;
74152;SDS011;62505;46.070;14.492;2024-03-17T08:38:58;14.40;;;5.78;;
74152;SDS011;62505;46.070;14.492;2024-03-17T08:41:26;13.38;;;6.05;;
74152;SDS011;62505;46.070;14.492;2024-03-17T08:43:57;14.60;;;5.80;;
74152;SDS011;62505;46.070;14.492;2024-03-17T08:46:24;14.23;;;5.25;;
74152;SDS011;62505;46.070;14.492;2024-03-17T08:48:51;16.75;;;5.20;;
74152;SDS011;62505;46.070;14.492;2024-03-17T08:51:18;15.90;;;5.90;;
74152;SDS011;62505;46.070;14.492;2024-03-17T08:53:45;16.70;;;5.30;;
74152;SDS011;62505;46.070;14.492;2024-03-17T08:56:12;15.60;;;5.15;;
74152;SDS011;62505;46.070;14.492;2024-03-17T08:58:39;15.55;;;5.72;;
74152;SDS011;62505;46.070;14.492;2024-03-17T09:01:09;16.10;;;5.32;;
74152;SDS011;62505;46.070;14.492;2024-03-17T09:03:40;15.75;;;5.38;;
74152;SDS011;62505;46.070;14.492;2024-03-17T09:06:13;14.85;;;6.00;;
74152;SDS011;62505;46.070;14.492;2024-03-17T09:08:42;19.88;;;6.03;;
74152;SDS011;62505;46.070;14.492;2024-03-17T09:11:11;16.75;;;5.18;;
74152;SDS011;62505;46.070;14.492;2024-03-17T09:13:39;21.83;;;5.97;;
74152;SDS011;62505;46.070;14.492;2024-03-17T09:16:06;15.90;;;5.40;;
74152;SDS011;62505;46.070;14.492;2024-03-17T09:18:38;15.57;;;6.00;;
74152;SDS011;62505;46.070;14.492;2024-03-17T09:21:05;14.32;;;5.35;;
74152;SDS011;62505;46.070;14.492;2024-03-17T09:23:34;18.50;;;5.25;;
74152;SDS011;62505;46.070;14.492;2024-03-17T09:26:02;14.60;;;5.75;;
74152;SDS011;62505;46.070;14.492;2024-03-17T09:28:30;15.63;;;5.32;;
74152;SDS011;62505;46.070;14.492;2024-03-17T09:30:58;16.02;;;5.05;;
74152;SDS011;62505;46.070;14.492;2024-03-17T09:33:27;10.88;;;4.40;;
74152;SDS011;62505;46.070;14.492;2024-03-17T09:35:55;12.25;;;5.78;;
74152;SDS011;62505;46.070;14.492;2024-03-17T09:38:24;17.65;;;5.25;;
74152;SDS011;62505;46.070;14.492;2024-03-17T09:40:52;12.85;;;5.25;;
74152;SDS011;62505;46.070;14.492;2024-03-17T09:43:22;12.18;;;7.22;;
74152;SDS011;62505;46.070;14.492;2024-03-17T09:45:50;15.82;;;10.63;;
74152;SDS011;62505;46.070;14.492;2024-03-17T09:48:22;16.25;;;10.82;;
74152;SDS011;62505;46.070;14.492;2024-03-17T09:50:51;17.40;;;11.25;;
74152;SDS011;62505;46.070;14.492;2024-03-17T09:53:22;14.85;;;9.13;;
74152;SDS011;62505;46.070;14.492;2024-03-17T09:55:51;14.85;;;7.70;;
74152;SDS011;62505;46.070;14.492;2024-03-17T09:58:18;18.63;;;8.55;;
74152;SDS011;62505;46.070;14.492;2024-03-17T10:00:45;19.25;;;8.50;;
74152;SDS011;62505;46.070;14.492;2024-03-17T10:03:12;16.25;;;8.77;;
74152;SDS011;62505;46.070;14.492;2024-03-17T10:06:08;17.52;;;9.52;;
74152;SDS011;62505;46.070;14.492;2024-03-17T10:08:40;18.25;;;9.38;;
74152;SDS011;62505;46.070;14.492;2024-03-17T10:11:11;16.50;;;9.05;;
74152;SDS011;62505;46.070;14.492;2024-03-17T10:13:39;21.25;;;10.40;;
74152;SDS011;62505;46.070;14.492;2024-03-17T10:16:06;18.58;;;9.65;;
74152;SDS011;62505;46.070;14.492;2024-03-17T10:18:33;17.92;;;10.32;;
74152;SDS011;62505;46.070;14.492;2024-03-17T10:20:59;18.35;;;9.40;;
74152;SDS011;62505;46.070;14.492;2024-03-17T10:23:28;17.58;;;10.32;;
74152;SDS011;62505;46.070;14.492;2024-03-17T10:25:55;21.55;;;9.75;;
74152;SDS011;62505;46.070;14.492;2024-03-17T10:28:22;18.40;;;10.95;;
74152;SDS011;62505;46.070;14.492;2024-03-17T10:30:58;15.20;;;9.50;;
74152;SDS011;62505;46.070;14.492;2024-03-17T10:33:26;21.25;;;10.50;;
74152;SDS011;62505;46.070;14.492;2024-03-17T10:35:59;19.92;;;9.80;;
74152;SDS011;62505;46.070;14.492;2024-03-17T10:38:29;20.15;;;9.93;;
74152;SDS011;62505;46.070;14.492;2024-03-17T10:40:56;18.08;;;9.38;;
74152;SDS011;62505;46.070;14.492;2024-03-17T10:43:23;25.83;;;10.35;;
74152;SDS011;62505;46.070;14.492;2024-03-17T10:45:54;18.40;;;10.02;;
74152;SDS011;62505;46.070;14.492;2024-03-17T10:48:24;24.50;;;11.27;;
74152;SDS011;62505;46.070;14.492;2024-03-17T10:50:58;23.77;;;11.07;;
74152;SDS011;62505;46.070;14.492;2024-03-17T10:53:29;28.83;;;12.60;;
74152;SDS011;62505;46.070;14.492;2024-03-17T10:56:00;44.55;;;13.68;;
74152;SDS011;62505;46.070;14.492;2024-03-17T10:58:34;26.25;;;12.18;;
74152;SDS011;62505;46.070;14.492;2024-03-17T11:01:02;27.92;;;13.90;;
74152;SDS011;62505;46.070;14.492;2024-03-17T11:03:31;30.02;;;14.48;;
74152;SDS011;62505;46.070;14.492;2024-03-17T11:05:58;33.25;;;15.70;;
74152;SDS011;62505;46.070;14.492;2024-03-17T11:08:30;35.42;;;16.35;;
74152;SDS011;62505;46.070;14.492;2024-03-17T11:10:59;37.08;;;16.38;;
74152;SDS011;62505;46.070;14.492;2024-03-17T11:13:26;47.03;;;16.27;;
74152;SDS011;62505;46.070;14.492;2024-03-17T11:15:55;39.60;;;16.45;;
74152;SDS011;62505;46.070;14.492;2024-03-17T11:18:28;48.10;;;17.90;;
74152;SDS011;62505;46.070;14.492;2024-03-17T11:21:02;40.70;;;15.70;;
74152;SDS011;62505;46.070;14.492;2024-03-17T11:23:58;38.28;;;14.18;;
74152;SDS011;62505;46.070;14.492;2024-03-17T11:26:27;36.38;;;14.73;;
74152;SDS011;62505;46.070;14.492;2024-03-17T11:28:58;39.97;;;15.93;;
74152;SDS011;62505;46.070;14.492;2024-03-17T11:31:42;35.95;;;16.02;;
74152;SDS011;62505;46.070;14.492;2024-03-17T11:37:00;28.23;;;13.77;;
74152;SDS011;62505;46.070;14.492;2024-03-17T11:39:47;40.65;;;14.25;;
74152;SDS011;62505;46.070;14.492;2024-03-17T11:42:28;29.60;;;13.35;;
74152;SDS011;62505;46.070;14.492;2024-03-17T11:44:56;33.63;;;12.95;;
74152;SDS011;62505;46.070;14.492;2024-03-17T11:47:23;35.38;;;13.98;;
74152;SDS011;62505;46.070;14.492;2024-03-17T11:50:01;34.67;;;13.10;;
74152;SDS011;62505;46.070;14.492;2024-03-17T11:52:29;29.08;;;13.30;;
74152;SDS011;62505;46.070;14.492;2024-03-17T11:54:58;30.42;;;13.63;;
74152;SDS011;62505;46.070;14.492;2024-03-17T11:57:24;28.88;;;12.55;;
74152;SDS011;62505;46.070;14.492;2024-03-17T11:59:53;29.45;;;12.38;;
74152;SDS011;62505;46.070;14.492;2024-03-17T12:02:20;30.50;;;13.73;;
74152;SDS011;62505;46.070;14.492;2024-03-17T12:04:48;30.42;;;12.82;;
74152;SDS011;62505;46.070;14.492;2024-03-17T12:07:16;31.13;;;12.77;;
74152;SDS011;62505;46.070;14.492;2024-03-17T12:09:46;30.88;;;13.75;;
74152;SDS011;62505;46.070;14.492;2024-03-17T12:12:16;29.70;;;12.70;;
74152;SDS011;62505;46.070;14.492;2024-03-17T12:14:44;27.02;;;12.27;;
74152;SDS011;62505;46.070;14.492;2024-03-17T12:17:11;32.95;;;12.75;;
74152;SDS011;62505;46.070;14.492;2024-03-17T12:19:39;31.20;;;13.05;;
74152;SDS011;62505;46.070;14.492;2024-03-17T12:22:07;34.53;;;13.40;;
74152;SDS011;62505;46.070;14.492;2024-03-17T12:24:40;45.13;;;14.25;;
74152;SDS011;62505;46.070;14.492;2024-03-17T12:27:10;30.42;;;13.02;;
74152;SDS011;62505;46.070;14.492;2024-03-17T12:29:48;40.95;;;14.55;;
74152;SDS011;62505;46.070;14.492;2024-03-17T12:32:16;37.10;;;12.95;;
74152;SDS011;62505;46.070;14.492;2024-03-17T12:34:45;36.55;;;13.23;;
74152;SDS011;62505;46.070;14.492;2024-03-17T12:37:15;34.63;;;13.13;;
74152;SDS011;62505;46.070;14.492;2024-03-17T12:39:44;46.60;;;14.73;;
74152;SDS011;62505;46.070;14.492;2024-03-17T12:42:11;27.15;;;13.32;;
74152;SDS011;62505;46.070;14.492;2024-03-17T12:44:43;32.78;;;13.73;;
74152;SDS011;62505;46.070;14.492;2024-03-17T12:47:14;38.92;;;14.07;;
74152;SDS011;62505;46.070;14.492;2024-03-17T12:49:45;34.92;;;12.93;;
74152;SDS011;62505;46.070;14.492;2024-03-17T12:52:16;34.72;;;13.00;;
74152;SDS011;62505;46.070;14.492;2024-03-17T12:54:45;31.10;;;13.18;;
74152;SDS011;62505;46.070;14.492;2024-03-17T12:57:41;27.48;;;12.38;;
74152;SDS011;62505;46.070;14.492;2024-03-17T13:00:27;26.55;;;12.23;;
74152;SDS011;62505;46.070;14.492;2024-03-17T13:03:00;31.83;;;11.73;;
74152;SDS011;62505;46.070;14.492;2024-03-17T13:05:28;28.55;;;12.90;;
74152;SDS011;62505;46.070;14.492;2024-03-17T13:07:55;27.70;;;12.32;;
74152;SDS011;62505;46.070;14.492;2024-03-17T13:10:22;28.45;;;11.95;;
74152;SDS011;62505;46.070;14.492;2024-03-17T13:12:58;23.67;;;11.60;;
74152;SDS011;62505;46.070;14.492;2024-03-17T13:15:28;32.92;;;12.63;;
74152;SDS011;62505;46.070;14.492;2024-03-17T13:17:56;32.95;;;12.80;;
74152;SDS011;62505;46.070;14.492;2024-03-17T13:20:23;26.25;;;11.98;;
74152;SDS011;62505;46.070;14.492;2024-03-17T13:22:50;29.40;;;11.80;;
74152;SDS011;62505;46.070;14.492;2024-03-17T13:25:18;27.95;;;11.68;;
74152;SDS011;62505;46.070;14.492;2024-03-17T13:27:47;23.63;;;11.98;;
74152;SDS011;62505;46.070;14.492;2024-03-17T13:30:15;27.20;;;11.77;;
74152;SDS011;62505;46.070;14.492;2024-03-17T13:32:44;28.02;;;11.52;;
74152;SDS011;62505;46.070;14.492;2024-03-17T13:35:14;27.58;;;11.32;;
74152;SDS011;62505;46.070;14.492;2024-03-17T13:37:44;25.70;;;11.65;;
74152;SDS011;62505;46.070;14.492;2024-03-17T13:40:13;29.50;;;11.55;;
74152;SDS011;62505;46.070;14.492;2024-03-17T13:42:41;28.05;;;11.13;;
74152;SDS011;62505;46.070;14.492;2024-03-17T13:45:09;30.45;;;11.50;;
74152;SDS011;62505;46.070;14.492;2024-03-17T13:47:37;25.38;;;11.68;;
74152;SDS011;62505;46.070;14.492;2024-03-17T13:50:06;29.85;;;11.50;;
74152;SDS011;62505;46.070;14.492;2024-03-17T13:52:37;35.33;;;12.40;;
74152;SDS011;62505;46.070;14.492;2024-03-17T13:55:05;21.98;;;9.52;;
74152;SDS011;62505;46.070;14.492;2024-03-17T13:57:33;19.48;;;8.07;;
74152;SDS011;62505;46.070;14.492;2024-03-17T14:00:00;13.88;;;7.28;;
74152;SDS011;62505;46.070;14.492;2024-03-17T14:02:27;8.95;;;5.22;;
74152;SDS011;62505;46.070;14.492;2024-03-17T14:04:54;12.02;;;5.60;;
74152;SDS011;62505;46.070;14.492;2024-03-17T14:07:23;5.80;;;3.95;;
74152;SDS011;62505;46.070;14.492;2024-03-17T14:09:49;9.40;;;4.53;;
74152;SDS011;62505;46.070;14.492;2024-03-17T14:12:16;11.18;;;4.68;;
74152;SDS011;62505;46.070;14.492;2024-03-17T14:14:43;10.65;;;3.88;;
74152;SDS011;62505;46.070;14.492;2024-03-17T14:17:10;6.40;;;3.63;;
74152;SDS011;62505;46.070;14.492;2024-03-17T14:19:37;6.85;;;3.38;;
74152;SDS011;62505;46.070;14.492;2024-03-17T14:22:04;12.07;;;3.92;;
74152;SDS011;62505;46.070;14.492;2024-03-17T14:24:32;10.35;;;4.85;;
74152;SDS011;62505;46.070;14.492;2024-03-17T14:26:59;14.77;;;4.40;;
74152;SDS011;62505;46.070;14.492;2024-03-17T14:29:27;6.93;;;3.70;;
74152;SDS011;62505;46.070;14.492;2024-03-17T14:31:53;8.32;;;4.15;;
74152;SDS011;62505;46.070;14.492;2024-03-17T14:34:20;11.32;;;3.92;;
74152;SDS011;62505;46.070;14.492;2024-03-17T14:36:52;10.80;;;4.15;;